Search for airport 
image banner adimage banner adimage banner ad
image banner ad

1CA9 - Los Angeles County Fire Department

Located in Thousand Oaks, United States

ICAO - 1CA9, IATA -

Data provided by Airmate  

General information

Coordinates: N34°5'1" W118°51'48"
Elevation is 1360 feet MSL.
Magnetic variation is 14° East
View others Airports in California

Operational data

Special qualification required
Current time UTC:
Current local time:
METAR: KNTD 292052Z 27013KT 10SM FEW008 FEW055 SCT250 22/14 A2993 RMK AO2 SLP135 T02220139 58008 VISNO N $
TAF: TAF KNTD 2915/3015 VRB05KT 4800 BR OVC005 QNH2991INS BECMG 2916/2918 27011KT 9999 NSW FEW006 FEW050 SCT250 QNH2985INS TEMPO 3000/3006 30007KT FM300600 VRB05KT 9999 FEW005 QNH2986INS TEMPO 3009/3015 OVC005 T22/2922Z T16/3012Z FS30016
View NOTAMs / SUP AIP / TFR affecting this airport [VIEW]
Communications frequencies: [VIEW]

Runways:

Airport contact information

Address: Thousand Oaks United States

Satellite view of 1CA9